createdAt,value
2018-05-13T00:00:58.685Z,6.70
2018-05-13T00:03:26.178Z,7.33
2018-05-13T00:05:53.658Z,7.43
2018-05-13T00:08:21.161Z,7.20
2018-05-13T00:10:49.042Z,7.33
2018-05-13T00:13:16.932Z,7.90
2018-05-13T00:15:44.801Z,7.80
2018-05-13T00:18:12.702Z,8.93
2018-05-13T00:20:40.182Z,8.27
2018-05-13T00:23:07.694Z,9.10
2018-05-13T00:25:35.169Z,8.57
2018-05-13T00:28:02.663Z,9.50
2018-05-13T00:30:30.555Z,9.50
2018-05-13T00:32:58.441Z,9.30
2018-05-13T00:35:25.934Z,9.00
2018-05-13T00:37:53.417Z,10.07
2018-05-13T00:40:20.924Z,9.03
2018-05-13T00:42:48.426Z,9.90
2018-05-13T00:45:15.926Z,10.53
2018-05-13T00:47:43.413Z,10.00
2018-05-13T00:50:10.914Z,10.63
2018-05-13T00:52:38.794Z,10.40
2018-05-13T00:55:06.293Z,10.70
2018-05-13T00:57:33.776Z,10.87
2018-05-13T01:00:01.284Z,10.40
2018-05-13T01:02:28.765Z,10.30
2018-05-13T01:04:56.267Z,10.27
2018-05-13T01:07:24.154Z,11.20
2018-05-13T01:09:51.693Z,10.77
2018-05-13T01:12:19.179Z,11.30
2018-05-13T01:14:47.078Z,11.47
2018-05-13T01:17:14.646Z,10.60
2018-05-13T01:19:42.525Z,10.80
2018-05-13T01:22:10.006Z,11.60
2018-05-13T01:24:37.514Z,10.80
2018-05-13T01:27:05.029Z,11.30
2018-05-13T01:29:32.923Z,12.00
2018-05-13T01:32:00.405Z,11.40
2018-05-13T01:34:27.912Z,12.43
2018-05-13T01:36:55.397Z,11.30
2018-05-13T01:39:23.474Z,11.83
2018-05-13T01:41:51.058Z,12.33
2018-05-13T01:44:18.555Z,11.47
2018-05-13T01:46:46.038Z,11.47
2018-05-13T01:49:13.525Z,12.03
2018-05-13T01:51:41.026Z,11.97
2018-05-13T01:54:08.509Z,11.77
2018-05-13T01:56:36.017Z,12.87
2018-05-13T01:59:03.507Z,13.40
2018-05-13T02:01:31.010Z,13.67
2018-05-13T02:03:58.605Z,13.00
2018-05-13T02:06:26.506Z,13.00
2018-05-13T02:08:53.990Z,12.60
2018-05-13T02:11:21.493Z,12.70
2018-05-13T02:13:48.969Z,14.13
2018-05-13T02:16:16.466Z,13.20
2018-05-13T02:18:44.370Z,12.10
2018-05-13T02:21:11.878Z,13.20
2018-05-13T02:23:39.358Z,13.60
2018-05-13T02:26:06.862Z,12.23
2018-05-13T02:28:34.742Z,13.03
2018-05-13T02:31:02.668Z,12.40
2018-05-13T02:33:30.141Z,12.23
2018-05-13T02:35:57.642Z,11.70
2018-05-13T02:38:25.129Z,12.87
2018-05-13T02:40:52.626Z,12.73
2018-05-13T02:43:20.176Z,13.40
2018-05-13T02:45:48.078Z,13.10
2018-05-13T02:48:15.565Z,12.60
2018-05-13T02:50:43.069Z,12.50
2018-05-13T02:53:10.560Z,15.30
2018-05-13T02:55:38.067Z,13.80
2018-05-13T02:58:05.546Z,13.57
2018-05-13T03:00:33.042Z,13.20
2018-05-13T03:03:00.529Z,15.20
2018-05-13T03:05:28.110Z,15.30
2018-05-13T03:07:55.598Z,14.13
2018-05-13T03:10:23.506Z,14.07
2018-05-13T03:12:50.997Z,13.73
2018-05-13T03:15:18.481Z,14.67
2018-05-13T03:17:45.991Z,13.43
2018-05-13T03:20:13.870Z,13.83
2018-05-13T03:22:41.769Z,13.83
2018-05-13T03:25:09.253Z,14.17
2018-05-13T03:27:36.759Z,14.27
2018-05-13T03:30:04.242Z,15.50
2018-05-13T03:32:31.825Z,13.50
2018-05-13T03:34:59.311Z,13.70
2018-05-13T03:37:27.210Z,14.17
2018-05-13T03:39:54.701Z,11.93
2018-05-13T03:42:22.214Z,12.73
2018-05-13T03:44:49.702Z,12.97
2018-05-13T03:47:17.594Z,13.50
2018-05-13T03:49:45.475Z,12.73
2018-05-13T03:52:12.982Z,13.50
2018-05-13T03:54:40.466Z,13.40
2018-05-13T03:57:07.966Z,11.47
2018-05-13T03:59:35.449Z,11.80
2018-05-13T04:02:03.366Z,11.13
2018-05-13T04:04:30.843Z,11.70
2018-05-13T04:06:58.337Z,11.17
2018-05-13T04:09:37.744Z,12.03
2018-05-13T04:12:17.334Z,10.83
2018-05-13T04:14:56.624Z,12.63
2018-05-13T04:17:24.525Z,12.70
2018-05-13T04:19:52.057Z,12.53
2018-05-13T04:22:19.562Z,12.70
2018-05-13T04:24:47.048Z,12.70
2018-05-13T04:27:14.550Z,12.40
2018-05-13T04:29:42.037Z,12.17
2018-05-13T04:32:09.539Z,13.20
2018-05-13T04:34:37.027Z,13.67
2018-05-13T04:37:04.511Z,13.73
2018-05-13T04:39:32.014Z,13.23
2018-05-13T04:41:59.507Z,13.40
2018-05-13T04:44:27.403Z,12.33
2018-05-13T04:46:54.892Z,14.10
2018-05-13T04:49:22.449Z,13.10
2018-05-13T04:51:49.936Z,13.80
2018-05-13T04:54:17.430Z,12.80
2018-05-13T04:56:44.930Z,13.93
2018-05-13T04:59:12.431Z,12.90
2018-05-13T05:01:39.909Z,13.70
2018-05-13T05:04:07.425Z,13.43
2018-05-13T05:06:34.910Z,14.13
2018-05-13T05:09:02.469Z,12.33
2018-05-13T05:11:29.929Z,12.47
2018-05-13T05:13:57.436Z,12.67
2018-05-13T05:16:25.341Z,12.37
2018-05-13T05:18:53.127Z,13.07
2018-05-13T05:21:20.606Z,12.80
2018-05-13T05:23:48.133Z,12.77
2018-05-13T05:26:15.613Z,13.10
2018-05-13T05:28:43.510Z,12.50
2018-05-13T05:31:10.993Z,12.80
2018-05-13T05:33:38.490Z,13.30
2018-05-13T05:36:05.974Z,12.80
2018-05-13T05:38:33.477Z,12.90
2018-05-13T05:41:01.358Z,13.40
2018-05-13T05:43:29.251Z,12.20
2018-05-13T05:45:56.748Z,12.00
2018-05-13T05:48:24.272Z,12.40
2018-05-13T05:50:51.837Z,13.10
2018-05-13T05:53:19.317Z,12.80
2018-05-13T05:55:47.212Z,14.17
2018-05-13T05:58:15.165Z,12.43
2018-05-13T06:00:42.668Z,12.23
2018-05-13T06:03:10.293Z,11.37
2018-05-13T06:05:38.118Z,11.13
2018-05-13T06:08:05.598Z,10.70
2018-05-13T06:10:33.093Z,11.10
2018-05-13T06:13:00.588Z,11.40
2018-05-13T06:15:28.213Z,10.77
2018-05-13T06:17:55.698Z,10.83
2018-05-13T06:20:23.201Z,10.80
2018-05-13T06:22:50.685Z,11.13
2018-05-13T06:25:18.226Z,10.53
2018-05-13T06:27:45.694Z,11.27
2018-05-13T06:30:13.205Z,13.03
2018-05-13T06:32:40.694Z,11.40
2018-05-13T06:35:08.590Z,11.57
2018-05-13T06:37:36.073Z,12.47
2018-05-13T06:40:03.576Z,12.00
2018-05-13T06:42:31.064Z,11.57
2018-05-13T06:44:58.565Z,10.97
2018-05-13T06:47:26.050Z,10.17
2018-05-13T06:49:53.552Z,9.70
2018-05-13T06:52:21.042Z,9.90
2018-05-13T06:54:48.554Z,9.43
2018-05-13T06:57:16.050Z,8.57
2018-05-13T06:59:43.544Z,9.67
2018-05-13T07:02:11.142Z,10.20
2018-05-13T07:04:39.043Z,11.20
2018-05-13T07:07:06.527Z,10.70
2018-05-13T07:09:34.014Z,10.17
2018-05-13T07:12:01.526Z,11.83
2018-05-13T07:14:29.034Z,10.40
2018-05-13T07:16:56.569Z,10.97
2018-05-13T07:19:24.056Z,11.63
2018-05-13T07:21:52.026Z,9.80
2018-05-13T07:24:19.505Z,11.70
2018-05-13T07:26:48.337Z,10.67
2018-05-13T07:29:15.836Z,12.07
2018-05-13T07:31:43.341Z,12.17
2018-05-13T07:34:10.826Z,13.47
2018-05-13T07:36:38.721Z,13.30
2018-05-13T07:39:06.201Z,12.40
2018-05-13T07:41:33.702Z,13.47
2018-05-13T07:44:01.181Z,12.17
2018-05-13T07:46:28.678Z,12.53
2018-05-13T07:48:56.750Z,10.13
2018-05-13T07:51:24.257Z,12.07
2018-05-13T07:53:51.742Z,10.53
2018-05-13T07:56:19.238Z,11.33
2018-05-13T07:58:46.726Z,10.47
2018-05-13T08:01:14.225Z,12.50
2018-05-13T08:03:42.110Z,13.47
2018-05-13T08:06:10.066Z,14.70
2018-05-13T08:08:37.498Z,14.50
2018-05-13T08:11:05.010Z,15.90
2018-05-13T08:13:32.989Z,15.03
2018-05-13T08:16:00.491Z,16.33
2018-05-13T08:18:28.374Z,16.90
2018-05-13T08:20:55.873Z,19.23
2018-05-13T08:23:23.355Z,19.23
2018-05-13T08:25:50.854Z,18.70
2018-05-13T08:28:18.346Z,22.87
2018-05-13T08:30:46.257Z,22.97
2018-05-13T08:33:13.745Z,21.60
2018-05-13T08:35:41.255Z,21.87
2018-05-13T08:38:08.751Z,22.40
2018-05-13T08:40:36.239Z,23.57
2018-05-13T08:43:03.745Z,24.33
2018-05-13T08:45:31.226Z,25.27
2018-05-13T08:47:58.735Z,26.47
2018-05-13T08:50:26.213Z,25.70
2018-05-13T08:52:53.779Z,26.20
2018-05-13T08:55:22.249Z,27.77
2018-05-13T08:57:49.750Z,29.90
2018-05-13T09:00:17.229Z,27.87
2018-05-13T09:02:44.725Z,28.63
2018-05-13T09:05:12.229Z,29.30
2018-05-13T09:07:39.810Z,29.93
2018-05-13T09:10:07.695Z,30.07
2018-05-13T09:12:35.217Z,30.80
2018-05-13T09:15:02.694Z,32.67
2018-05-13T09:17:30.212Z,34.40
2018-05-13T09:19:57.701Z,38.43
2018-05-13T09:22:25.201Z,39.07
2018-05-13T09:24:52.689Z,37.07
2018-05-13T09:27:20.198Z,41.27
2018-05-13T09:29:49.156Z,42.40
2018-05-13T09:32:16.656Z,43.47
2018-05-13T09:34:44.538Z,50.50
2018-05-13T09:37:12.440Z,51.17
2018-05-13T09:39:39.975Z,51.10
2018-05-13T09:42:07.553Z,52.83
2018-05-13T09:44:35.044Z,54.07
2018-05-13T09:47:03.013Z,53.20
2018-05-13T09:49:30.902Z,52.07
2018-05-13T09:51:58.873Z,55.80
2018-05-13T09:54:26.756Z,54.77
2018-05-13T09:56:54.640Z,56.63
2018-05-13T09:59:22.730Z,49.63
2018-05-13T10:01:50.623Z,52.30
2018-05-13T10:04:18.125Z,50.90
2018-05-13T10:06:45.609Z,50.07
2018-05-13T10:09:13.122Z,49.57
2018-05-13T10:11:41.006Z,55.20
2018-05-13T10:14:08.909Z,54.70
2018-05-13T10:16:36.683Z,56.47
2018-05-13T10:19:04.185Z,62.30
2018-05-13T10:21:31.673Z,59.33
2018-05-13T10:23:59.177Z,63.07
2018-05-13T10:26:26.668Z,60.53
2018-05-13T10:28:54.174Z,61.90
2018-05-13T10:31:21.667Z,66.03
2018-05-13T10:33:49.175Z,69.50
2018-05-13T10:36:16.726Z,66.27
2018-05-13T10:38:44.185Z,59.07
2018-05-13T10:41:12.066Z,61.77
2018-05-13T10:43:39.970Z,50.40
2018-05-13T10:46:07.513Z,56.63
2018-05-13T10:48:35.014Z,52.70
2018-05-13T10:51:02.517Z,50.70
2018-05-13T10:53:30.030Z,54.70
2018-05-13T10:55:57.583Z,54.10
2018-05-13T10:58:25.112Z,51.27
2018-05-13T11:00:52.604Z,46.43
2018-05-13T11:03:20.285Z,45.43
2018-05-13T11:05:47.790Z,42.53
2018-05-13T11:08:15.694Z,43.70
2018-05-13T11:10:43.182Z,42.97
2018-05-13T11:13:10.686Z,43.67
2018-05-13T11:15:38.181Z,34.97
2018-05-13T11:18:06.098Z,41.30
2018-05-13T11:20:37.421Z,46.10
2018-05-13T11:23:05.231Z,45.67
2018-05-13T11:25:32.745Z,46.50
2018-05-13T11:28:00.234Z,54.57
2018-05-13T11:30:27.754Z,63.60
2018-05-13T11:32:55.237Z,70.93
2018-05-13T11:35:22.743Z,77.37
2018-05-13T11:37:50.243Z,81.73
2018-05-13T11:40:18.147Z,78.90
2018-05-13T11:42:45.644Z,84.67
2018-05-13T11:45:13.147Z,76.20
2018-05-13T11:47:40.634Z,52.20
2018-05-13T11:50:08.538Z,51.70
2018-05-13T11:52:36.032Z,49.00
2018-05-13T11:55:03.653Z,50.60
2018-05-13T11:57:31.535Z,49.70
2018-05-13T11:59:59.504Z,55.60
2018-05-13T12:02:27.076Z,51.90
2018-05-13T12:04:55.590Z,51.77
2018-05-13T12:07:23.197Z,52.67
2018-05-13T12:09:50.706Z,51.60
2018-05-13T12:12:18.191Z,50.27
2018-05-13T12:14:46.103Z,53.20
2018-05-13T12:17:13.593Z,53.60
2018-05-13T12:19:41.098Z,50.77
2018-05-13T12:22:08.581Z,49.07
2018-05-13T12:24:36.486Z,52.07
2018-05-13T12:27:03.973Z,54.53
2018-05-13T12:29:31.497Z,54.80
2018-05-13T12:31:58.984Z,55.27
2018-05-13T12:34:26.885Z,52.77
2018-05-13T12:36:54.374Z,53.13
2018-05-13T12:39:21.878Z,55.40
2018-05-13T12:41:49.365Z,52.47
2018-05-13T12:44:17.266Z,53.23
2018-05-13T12:46:44.749Z,55.27
2018-05-13T12:49:12.230Z,54.17
2018-05-13T12:51:39.734Z,54.90
2018-05-13T12:54:07.218Z,56.40
2018-05-13T12:56:34.723Z,51.43
2018-05-13T12:59:02.265Z,47.63
2018-05-13T13:01:29.770Z,49.10
2018-05-13T13:03:57.262Z,45.77
2018-05-13T13:06:24.761Z,47.27
2018-05-13T13:08:52.362Z,49.87
2018-05-13T13:11:20.335Z,45.30
2018-05-13T13:13:47.832Z,42.00
2018-05-13T13:16:15.342Z,44.63
2018-05-13T13:18:42.822Z,42.30
2018-05-13T13:21:10.332Z,37.27
2018-05-13T13:23:38.223Z,39.17
2018-05-13T13:26:05.730Z,41.77
2018-05-13T13:28:33.214Z,38.47
2018-05-13T13:31:00.726Z,40.40
2018-05-13T13:33:28.606Z,33.80
2018-05-13T13:35:56.114Z,35.57
2018-05-13T13:38:23.597Z,32.20
2018-05-13T13:40:51.113Z,33.90
2018-05-13T13:43:18.996Z,30.20
2018-05-13T13:45:46.920Z,31.80
2018-05-13T13:48:14.406Z,31.97
2018-05-13T13:50:41.914Z,30.27
2018-05-13T13:53:09.789Z,29.40
2018-05-13T13:55:37.357Z,29.70
2018-05-13T13:58:05.236Z,30.50
2018-05-13T14:00:33.169Z,29.70
2018-05-13T14:03:00.658Z,32.97
2018-05-13T14:05:28.169Z,30.20
2018-05-13T14:07:56.050Z,30.77
2018-05-13T14:10:24.002Z,29.60
2018-05-13T14:12:51.502Z,29.00
2018-05-13T14:15:19.382Z,29.20
2018-05-13T14:17:47.288Z,31.27
2018-05-13T14:20:14.849Z,30.83
2018-05-13T14:22:42.293Z,33.60
2018-05-13T14:25:09.785Z,32.97
2018-05-13T14:27:37.686Z,29.63
2018-05-13T14:30:05.174Z,34.37
2018-05-13T14:32:32.681Z,37.63
2018-05-13T14:35:00.162Z,37.17
2018-05-13T14:37:28.058Z,40.00
2018-05-13T14:39:55.575Z,39.83
2018-05-13T14:42:23.069Z,43.70
2018-05-13T14:44:50.555Z,48.90
2018-05-13T14:47:18.117Z,45.47
2018-05-13T14:49:45.694Z,45.97
2018-05-13T14:52:13.198Z,46.80
2018-05-13T14:54:40.690Z,50.93
2018-05-13T14:57:08.216Z,42.77
2018-05-13T14:59:36.093Z,44.17
2018-05-13T15:02:03.989Z,45.73
2018-05-13T15:04:31.490Z,48.60
2018-05-13T15:06:59.017Z,46.17
2018-05-13T15:09:26.898Z,52.10
2018-05-13T15:11:54.798Z,52.43
2018-05-13T15:14:22.286Z,53.60
2018-05-13T15:16:49.790Z,56.17
2018-05-13T15:19:17.381Z,61.47
2018-05-13T15:21:44.885Z,68.00
2018-05-13T15:24:12.381Z,68.90
2018-05-13T15:26:39.898Z,66.10
2018-05-13T15:29:07.800Z,69.03
2018-05-13T15:31:35.318Z,66.63
2018-05-13T15:34:02.809Z,72.93
2018-05-13T15:36:30.298Z,73.80
2018-05-13T15:38:58.202Z,80.17
2018-05-13T15:41:25.752Z,77.77
2018-05-13T15:43:53.658Z,78.37
2018-05-13T15:46:21.154Z,74.47
2018-05-13T15:48:48.662Z,84.43
2018-05-13T15:51:16.158Z,82.87
2018-05-13T15:53:43.670Z,84.47
2018-05-13T15:56:11.157Z,82.20
2018-05-13T15:58:38.662Z,76.40
2018-05-13T16:01:06.158Z,79.37
2018-05-13T16:03:33.661Z,75.10
2018-05-13T16:06:01.263Z,76.07
2018-05-13T16:08:29.176Z,75.87
2018-05-13T16:10:56.670Z,74.57
2018-05-13T16:13:24.182Z,72.33
2018-05-13T16:15:51.677Z,65.93
2018-05-13T16:18:19.608Z,65.17
2018-05-13T16:20:47.121Z,71.50
2018-05-13T16:23:15.022Z,62.20
2018-05-13T16:25:42.518Z,58.77
2018-05-13T16:28:10.131Z,58.20
2018-05-13T16:30:38.010Z,60.87
2018-05-13T16:33:05.910Z,53.60
2018-05-13T16:35:33.787Z,61.20
2018-05-13T16:38:01.694Z,60.90
2018-05-13T16:40:29.186Z,59.67
2018-05-13T16:42:56.689Z,58.93
2018-05-13T16:45:24.174Z,62.70
2018-05-13T16:47:52.073Z,57.20
2018-05-13T16:50:19.565Z,64.33
2018-05-13T16:52:47.073Z,65.83
2018-05-13T16:55:14.561Z,63.07
2018-05-13T16:57:42.446Z,66.87
2018-05-13T17:00:10.345Z,70.07
2018-05-13T17:02:37.889Z,66.20
2018-05-13T17:05:05.393Z,72.90
2018-05-13T17:07:32.934Z,74.80
2018-05-13T17:10:00.838Z,74.43
2018-05-13T17:12:28.325Z,76.73
2018-05-13T17:14:55.838Z,79.43
2018-05-13T17:17:23.342Z,81.97
2018-05-13T17:19:50.854Z,84.53
2018-05-13T17:22:18.352Z,84.97
2018-05-13T17:24:45.857Z,88.43
2018-05-13T17:27:13.743Z,89.90
2018-05-13T17:29:41.276Z,96.33
2018-05-13T17:32:08.790Z,96.27
2018-05-13T17:34:36.298Z,81.33
2018-05-13T17:37:03.787Z,97.43
2018-05-13T17:39:31.295Z,98.73
2018-05-13T17:41:58.845Z,100.80
2018-05-13T17:44:26.374Z,93.53
2018-05-13T17:46:53.897Z,87.43
2018-05-13T17:49:21.840Z,97.83
2018-05-13T17:51:49.766Z,91.40
2018-05-13T17:54:17.805Z,91.80
2018-05-13T17:56:45.298Z,93.83
2018-05-13T17:59:12.869Z,96.33
2018-05-13T18:01:40.361Z,94.60
2018-05-13T18:04:08.502Z,98.80
2018-05-13T18:06:36.000Z,90.47
2018-05-13T18:09:04.010Z,102.17
2018-05-13T18:11:31.569Z,101.20
2018-05-13T18:13:59.365Z,97.67
2018-05-13T18:16:26.869Z,99.67
2018-05-13T18:18:54.857Z,98.73
2018-05-13T18:21:22.362Z,96.00
2018-05-13T18:23:50.134Z,89.13
2018-05-13T18:26:18.077Z,90.43
2018-05-13T18:28:45.718Z,94.63
2018-05-13T18:31:13.841Z,91.37
2018-05-13T18:33:41.878Z,93.63
2018-05-13T18:36:09.778Z,95.63
2018-05-13T18:38:37.278Z,86.10
2018-05-13T18:41:04.809Z,81.63
2018-05-13T18:43:32.693Z,88.87
2018-05-13T18:46:00.602Z,79.67
2018-05-13T18:48:28.094Z,83.20
2018-05-13T18:50:55.602Z,83.90
2018-05-13T18:53:23.514Z,89.73
2018-05-13T18:55:51.018Z,87.30
2018-05-13T18:58:18.509Z,81.57
2018-05-13T19:00:46.088Z,84.47
2018-05-13T19:03:13.578Z,80.23
2018-05-13T19:05:41.226Z,75.83
2018-05-13T19:08:08.715Z,74.33
2018-05-13T19:10:36.621Z,77.03
2018-05-13T19:13:04.113Z,74.60
2018-05-13T19:15:31.621Z,71.20
2018-05-13T19:17:59.113Z,72.70
2018-05-13T19:20:27.014Z,72.37
2018-05-13T19:22:54.502Z,77.97
2018-05-13T19:25:22.022Z,74.53
2018-05-13T19:27:49.902Z,79.47
2018-05-13T19:30:17.481Z,77.73
2018-05-13T19:32:45.398Z,77.30
2018-05-13T19:35:13.018Z,74.90
2018-05-13T19:37:40.561Z,77.10
2018-05-13T19:40:08.113Z,78.47
2018-05-13T19:42:35.645Z,81.10
2018-05-13T19:45:03.164Z,79.77
2018-05-13T19:47:30.677Z,83.97
2018-05-13T19:49:58.176Z,90.00
2018-05-13T19:52:25.761Z,84.00
2018-05-13T19:54:53.297Z,83.57
2018-05-13T19:57:20.805Z,88.10
2018-05-13T19:59:48.310Z,87.77
2018-05-13T20:02:15.850Z,88.13
2018-05-13T20:04:43.397Z,87.13
2018-05-13T20:07:11.297Z,89.13
2018-05-13T20:09:38.797Z,94.47
2018-05-13T20:12:06.375Z,99.40
2018-05-13T20:14:33.908Z,103.60
2018-05-13T20:17:01.422Z,99.77
2018-05-13T20:19:28.926Z,105.97
2018-05-13T20:21:56.859Z,109.73
2018-05-13T20:24:24.350Z,104.37
2018-05-13T20:26:51.862Z,113.37
2018-05-13T20:29:19.770Z,109.17
2018-05-13T20:31:47.297Z,104.73
2018-05-13T20:34:14.796Z,106.47
2018-05-13T20:36:42.367Z,106.67
2018-05-13T20:39:09.901Z,103.23
2018-05-13T20:41:37.426Z,106.27
2018-05-13T20:44:04.921Z,100.67
2018-05-13T20:46:32.410Z,101.73
2018-05-13T20:48:59.918Z,98.70
2018-05-13T20:51:27.502Z,101.57
2018-05-13T20:53:55.038Z,95.73
2018-05-13T20:56:22.549Z,104.87
2018-05-13T20:58:50.109Z,103.40
2018-05-13T21:01:17.654Z,108.50
2018-05-13T21:03:45.590Z,107.07
2018-05-13T21:06:13.090Z,105.90
2018-05-13T21:08:40.599Z,102.47
2018-05-13T21:11:08.112Z,100.57
2018-05-13T21:13:35.632Z,107.47
2018-05-13T21:16:03.592Z,99.73
2018-05-13T21:18:31.061Z,95.53
2018-05-13T21:20:58.545Z,98.23
2018-05-13T21:23:26.476Z,96.40
2018-05-13T21:25:53.970Z,98.37
2018-05-13T21:28:21.474Z,98.80
2018-05-13T21:30:49.358Z,93.87
2018-05-13T21:33:17.261Z,93.73
2018-05-13T21:35:44.749Z,98.27
2018-05-13T21:38:12.253Z,91.40
2018-05-13T21:40:39.837Z,92.77
2018-05-13T21:43:07.349Z,94.27
2018-05-13T21:45:34.834Z,85.47
2018-05-13T21:48:02.341Z,87.33
2018-05-13T21:50:29.837Z,87.67
2018-05-13T21:52:57.742Z,83.97
2018-05-13T21:55:25.225Z,89.23
2018-05-13T21:57:52.733Z,86.90
2018-05-13T22:00:20.226Z,86.20
2018-05-13T22:02:48.130Z,88.17
2018-05-13T22:05:15.677Z,86.20
2018-05-13T22:07:43.617Z,82.70
2018-05-13T22:10:11.105Z,77.10
2018-05-13T22:12:38.594Z,80.67
2018-05-13T22:15:06.498Z,79.00
2018-05-13T22:17:33.999Z,79.17
2018-05-13T22:20:01.518Z,75.73
2018-05-13T22:22:29.438Z,77.43
2018-05-13T22:24:56.956Z,69.83
2018-05-13T22:27:24.446Z,73.27
2018-05-13T22:29:52.349Z,71.47
2018-05-13T22:32:19.842Z,69.87
2018-05-13T22:34:47.402Z,71.67
2018-05-13T22:37:14.893Z,75.43
2018-05-13T22:39:42.401Z,76.33
2018-05-13T22:42:10.294Z,74.03
2018-05-13T22:44:38.194Z,74.93
2018-05-13T22:47:05.686Z,71.63
2018-05-13T22:49:33.206Z,73.27
2018-05-13T22:52:01.090Z,71.27
2018-05-13T22:54:29.065Z,70.90
2018-05-13T22:56:56.563Z,70.57
2018-05-13T22:59:24.070Z,67.73
2018-05-13T23:01:51.557Z,67.70
2018-05-13T23:04:19.071Z,71.50
2018-05-13T23:06:46.561Z,69.67
2018-05-13T23:09:14.096Z,69.00
2018-05-13T23:11:42.054Z,66.83
2018-05-13T23:14:09.563Z,65.20
2018-05-13T23:16:37.046Z,67.97
2018-05-13T23:19:04.554Z,63.23
2018-05-13T23:21:32.074Z,64.87
2018-05-13T23:24:00.072Z,69.40
2018-05-13T23:26:27.609Z,65.40
2018-05-13T23:28:55.526Z,67.10
2018-05-13T23:31:23.033Z,67.60
2018-05-13T23:33:50.521Z,71.10
2018-05-13T23:36:18.038Z,70.97
2018-05-13T23:38:45.530Z,74.57
2018-05-13T23:41:13.056Z,72.40
2018-05-13T23:43:40.937Z,71.20
2018-05-13T23:46:08.905Z,75.57
2018-05-13T23:48:36.492Z,78.83
2018-05-13T23:51:03.925Z,81.17
2018-05-13T23:53:31.418Z,84.03
2018-05-13T23:55:58.963Z,78.43
2018-05-13T23:58:26.566Z,73.80
